createdAt,value
2023-04-05T00:00:32.540Z,94502.34
2023-04-05T00:03:00.312Z,94501.16
2023-04-05T00:05:31.565Z,94500.16
2023-04-05T00:08:00.695Z,94493.47
2023-04-05T00:10:28.766Z,94498.56
2023-04-05T00:12:55.848Z,94495.31
2023-04-05T00:15:23.084Z,94488.03
2023-04-05T00:17:50.791Z,94491.06
2023-04-05T00:20:17.645Z,94497.31
2023-04-05T00:22:44.961Z,94495.88
2023-04-05T00:25:12.295Z,94498.31
2023-04-05T00:27:39.879Z,94491.19
2023-04-05T00:30:07.380Z,94506.34
2023-04-05T00:32:34.545Z,94496.22
2023-04-05T00:35:01.524Z,94490.72
2023-04-05T00:37:29.804Z,94480.84
2023-04-05T00:39:57.610Z,94505.72
2023-04-05T00:42:24.642Z,94504.16
2023-04-05T00:44:51.561Z,94497.66
2023-04-05T00:47:18.644Z,94509.22
2023-04-05T00:49:46.382Z,94503.16
2023-04-05T00:52:15.133Z,94490.59
2023-04-05T00:54:43.438Z,94500.75
2023-04-05T00:57:11.147Z,94480.47
2023-04-05T00:59:38.093Z,94519.72
2023-04-05T01:02:17.210Z,94516.50
2023-04-05T01:04:50.203Z,94512.25
2023-04-05T01:07:31.580Z,94511.41
2023-04-05T01:10:01.269Z,94500.03
2023-04-05T01:12:34.957Z,94523.72
2023-04-05T01:15:04.731Z,94507.16
2023-04-05T01:17:36.958Z,94518.72
2023-04-05T01:20:10.919Z,94511.28
2023-04-05T01:23:11.506Z,94513.09
2023-04-05T01:25:54.084Z,94512.47
2023-04-05T01:28:52.719Z,94518.31
2023-04-05T01:31:26.168Z,94524.97
2023-04-05T01:34:20.215Z,94515.66
2023-04-05T01:36:56.159Z,94523.31
2023-04-05T01:39:24.970Z,94524.94
2023-04-05T01:41:51.986Z,94512.00
2023-04-05T01:44:18.848Z,94512.16
2023-04-05T01:46:47.028Z,94533.97
2023-04-05T01:49:13.880Z,94517.66
2023-04-05T01:51:42.196Z,94525.72
2023-04-05T01:54:09.529Z,94521.50
2023-04-05T01:56:36.699Z,94502.47
2023-04-05T01:59:04.255Z,94518.66
2023-04-05T02:01:32.165Z,94509.97
2023-04-05T02:03:59.302Z,94518.53
2023-04-05T02:06:26.701Z,94524.97
2023-04-05T02:08:53.643Z,94523.78
2023-04-05T02:11:21.224Z,94510.66
2023-04-05T02:13:48.233Z,94527.47
2023-04-05T02:16:16.718Z,94529.91
2023-04-05T02:18:51.048Z,94515.75
2023-04-05T02:21:18.293Z,94506.41
2023-04-05T02:23:45.177Z,94503.34
2023-04-05T02:26:12.173Z,94512.69
2023-04-05T02:28:39.113Z,94523.44
2023-04-05T02:31:14.276Z,94524.66
2023-04-05T02:33:42.616Z,94525.44
2023-04-05T02:36:11.787Z,94517.63
2023-04-05T02:38:39.379Z,94519.22
2023-04-05T02:41:09.937Z,94520.41
2023-04-05T02:43:39.066Z,94519.38
2023-04-05T02:46:06.502Z,94513.94
2023-04-05T02:48:38.503Z,94520.44
2023-04-05T02:51:06.245Z,94515.56
2023-04-05T02:53:33.190Z,94512.56
2023-04-05T02:56:03.531Z,94522.25
2023-04-05T02:58:32.977Z,94489.88
2023-04-05T03:01:06.089Z,94509.13
2023-04-05T03:03:37.498Z,94520.25
2023-04-05T03:06:13.410Z,94516.56
2023-04-05T03:08:49.390Z,94460.09
2023-04-05T03:11:24.734Z,94482.75
2023-04-05T03:13:56.553Z,94520.63
2023-04-05T03:16:44.849Z,94516.97
2023-04-05T03:19:29.213Z,94520.00
2023-04-05T03:22:07.988Z,94527.06
2023-04-05T03:24:37.120Z,94515.94
2023-04-05T03:27:07.800Z,94519.63
2023-04-05T03:29:49.091Z,94516.81
2023-04-05T03:32:18.104Z,94513.78
2023-04-05T03:34:52.006Z,94515.34
2023-04-05T03:37:20.973Z,94501.19
2023-04-05T03:39:58.085Z,94519.19
2023-04-05T03:42:25.386Z,94524.44
2023-04-05T03:44:54.108Z,94520.19
2023-04-05T03:47:21.089Z,94529.06
2023-04-05T03:49:48.235Z,94521.19
2023-04-05T03:52:15.253Z,94523.03
2023-04-05T03:54:45.063Z,94540.59
2023-04-05T03:57:14.201Z,94535.53
2023-04-05T03:59:42.776Z,94535.34
2023-04-05T04:02:09.971Z,94546.00
2023-04-05T04:04:37.085Z,94530.78
2023-04-05T04:07:03.950Z,94543.59
2023-04-05T04:09:31.214Z,94542.38
2023-04-05T04:12:05.711Z,94549.47
2023-04-05T04:14:35.446Z,94534.09
2023-04-05T04:17:30.216Z,94545.41
2023-04-05T04:20:26.557Z,94541.16
2023-04-05T04:23:14.566Z,94547.63
2023-04-05T04:26:03.103Z,94546.28
2023-04-05T04:28:49.082Z,94545.28
2023-04-05T04:31:18.973Z,94545.50
2023-04-05T04:34:06.894Z,94567.09
2023-04-05T04:36:46.739Z,94548.91
2023-04-05T04:39:36.170Z,94549.53
2023-04-05T04:42:38.916Z,94557.44
2023-04-05T04:45:10.815Z,94553.00
2023-04-05T04:47:47.452Z,94549.81
2023-04-05T04:50:24.681Z,94548.22
2023-04-05T04:52:51.673Z,94562.34
2023-04-05T04:55:25.220Z,94551.03
2023-04-05T04:57:53.654Z,94531.97
2023-04-05T05:00:22.277Z,94542.50
2023-04-05T05:02:51.141Z,94555.63
2023-04-05T05:05:23.240Z,94554.06
2023-04-05T05:07:50.802Z,94559.97
2023-04-05T05:10:18.975Z,94470.44
2023-04-05T05:12:46.824Z,94531.59
2023-04-05T05:15:15.207Z,94560.78
2023-04-05T05:17:42.219Z,94565.19
2023-04-05T05:20:12.755Z,94571.69
2023-04-05T05:22:46.587Z,94559.13
2023-04-05T05:25:13.491Z,94567.84
2023-04-05T05:27:41.420Z,94571.88
2023-04-05T05:30:09.379Z,94577.56
2023-04-05T05:32:36.397Z,94548.59
2023-04-05T05:35:03.544Z,94574.75
2023-04-05T05:37:34.096Z,94569.53
2023-04-05T05:40:01.083Z,94571.97
2023-04-05T05:42:28.311Z,94555.38
2023-04-05T05:44:55.609Z,94559.63
2023-04-05T05:47:22.453Z,94564.91
2023-04-05T05:49:52.208Z,94562.25
2023-04-05T05:52:19.318Z,94557.41
2023-04-05T05:54:47.308Z,94565.06
2023-04-05T05:57:14.382Z,94564.84
2023-04-05T05:59:41.836Z,94562.63
2023-04-05T06:02:10.014Z,94536.94
2023-04-05T06:04:38.088Z,94561.16
2023-04-05T06:07:05.218Z,94550.06
2023-04-05T06:09:35.312Z,94575.56
2023-04-05T06:12:02.997Z,94539.53
2023-04-05T06:14:30.095Z,94563.22
2023-04-05T06:16:57.650Z,94564.38
2023-04-05T06:19:24.531Z,94576.75
2023-04-05T06:21:51.552Z,94585.25
2023-04-05T06:24:18.380Z,94576.34
2023-04-05T06:26:45.472Z,94579.16
2023-04-05T06:29:12.361Z,94564.56
2023-04-05T06:31:41.662Z,94587.41
2023-04-05T06:34:08.640Z,94590.84
2023-04-05T06:36:36.057Z,94576.72
2023-04-05T06:39:03.213Z,94578.09
2023-04-05T06:41:30.795Z,94588.47
2023-04-05T06:43:57.638Z,94594.28
2023-04-05T06:46:25.297Z,94589.34
2023-04-05T06:48:52.864Z,94599.75
2023-04-05T06:51:20.181Z,94597.56
2023-04-05T06:53:47.169Z,94601.53
2023-04-05T06:56:14.041Z,94608.88
2023-04-05T06:58:41.903Z,94601.31
2023-04-05T07:01:08.869Z,94614.47
2023-04-05T07:03:36.274Z,94624.19
2023-04-05T07:06:04.353Z,94619.28
2023-04-05T07:08:33.096Z,94612.41
2023-04-05T07:11:00.157Z,94623.25
2023-04-05T07:13:27.456Z,94621.53
2023-04-05T07:16:01.161Z,94634.75
2023-04-05T07:18:30.167Z,94619.09
2023-04-05T07:21:02.233Z,94621.38
2023-04-05T07:23:30.798Z,94628.50
2023-04-05T07:26:05.255Z,94642.59
2023-04-05T07:28:33.242Z,94624.28
2023-04-05T07:31:00.184Z,94637.91
2023-04-05T07:33:28.018Z,94634.59
2023-04-05T07:35:55.768Z,94636.47
2023-04-05T07:38:23.586Z,94630.50
2023-04-05T07:40:50.932Z,94644.28
2023-04-05T07:43:21.280Z,94643.19
2023-04-05T07:45:48.379Z,94624.72
2023-04-05T07:48:15.556Z,94655.28
2023-04-05T07:50:47.917Z,94655.38
2023-04-05T07:53:16.710Z,94633.31
2023-04-05T07:55:44.192Z,94667.31
2023-04-05T07:58:11.326Z,94669.13
2023-04-05T08:00:38.954Z,94670.53
2023-04-05T08:03:06.826Z,94657.41
2023-04-05T08:05:33.832Z,94645.97
2023-04-05T08:08:01.743Z,94671.59
2023-04-05T08:10:28.709Z,94662.47
2023-04-05T08:12:55.818Z,94673.56
2023-04-05T08:15:22.780Z,94673.84
2023-04-05T08:17:49.893Z,94659.63
2023-04-05T08:20:17.022Z,94661.53
2023-04-05T08:22:44.262Z,94676.00
2023-04-05T08:25:13.695Z,94624.78
2023-04-05T08:27:41.379Z,94683.72
2023-04-05T08:30:09.297Z,94684.69
2023-04-05T08:32:36.593Z,94618.31
2023-04-05T08:35:03.849Z,94684.72
2023-04-05T08:37:34.872Z,94685.28
2023-04-05T08:40:03.221Z,94686.66
2023-04-05T08:42:36.515Z,94673.03
2023-04-05T08:45:04.886Z,94702.66
2023-04-05T08:47:34.996Z,94695.28
2023-04-05T08:50:03.106Z,94655.06
2023-04-05T08:52:32.502Z,94682.50
2023-04-05T08:54:59.611Z,94686.28
2023-04-05T08:57:31.008Z,94681.66
2023-04-05T09:00:01.970Z,94699.88
2023-04-05T09:02:32.902Z,94709.69
2023-04-05T09:05:00.365Z,94718.06
2023-04-05T09:07:30.431Z,94693.81
2023-04-05T09:10:00.669Z,94717.25
2023-04-05T09:12:28.439Z,94707.66
2023-04-05T09:14:56.110Z,94712.63
2023-04-05T09:17:23.088Z,94712.22
2023-04-05T09:19:50.536Z,94710.59
2023-04-05T09:22:20.442Z,94721.25
2023-04-05T09:24:47.912Z,94694.72
2023-04-05T09:27:19.935Z,94722.81
2023-04-05T09:29:57.880Z,94716.78
2023-04-05T09:32:27.796Z,94715.63
2023-04-05T09:34:55.642Z,94711.97
2023-04-05T09:37:33.973Z,94703.66
2023-04-05T09:40:06.854Z,94705.63
2023-04-05T09:42:46.106Z,94704.31
2023-04-05T09:45:14.982Z,94706.38
2023-04-05T09:47:57.489Z,94684.31
2023-04-05T09:50:24.952Z,94696.13
2023-04-05T09:53:09.468Z,94708.41
2023-04-05T09:55:37.063Z,94707.69
2023-04-05T09:58:04.104Z,94714.09
2023-04-05T10:00:34.281Z,94722.13
2023-04-05T10:03:21.070Z,94706.78
2023-04-05T10:05:56.069Z,94721.25
2023-04-05T10:08:24.485Z,94701.72
2023-04-05T10:10:54.729Z,94708.63
2023-04-05T10:13:22.321Z,94712.91
2023-04-05T10:15:51.338Z,94710.56
2023-04-05T10:18:25.275Z,94717.50
2023-04-05T10:20:54.234Z,94728.50
2023-04-05T10:23:35.060Z,94730.88
2023-04-05T10:26:11.286Z,94663.75
2023-04-05T10:28:47.487Z,94722.31
2023-04-05T10:31:37.116Z,94709.34
2023-04-05T10:34:09.360Z,94729.97
2023-04-05T10:36:59.880Z,94709.59
2023-04-05T10:39:35.358Z,94719.72
2023-04-05T10:42:34.992Z,94718.56
2023-04-05T10:45:10.075Z,94687.84
2023-04-05T10:47:47.669Z,94707.50
2023-04-05T10:50:21.599Z,94714.34
2023-04-05T10:52:49.137Z,94723.19
2023-04-05T10:55:17.318Z,94715.16
2023-04-05T10:57:46.266Z,94745.75
2023-04-05T11:00:14.690Z,94737.47
2023-04-05T11:02:42.710Z,94733.53
2023-04-05T11:05:31.452Z,94727.25
2023-04-05T11:08:04.904Z,94729.09
2023-04-05T11:10:37.676Z,94734.97
2023-04-05T11:13:07.388Z,94715.66
2023-04-05T11:15:35.393Z,94730.91
2023-04-05T11:18:20.748Z,94732.28
2023-04-05T11:20:48.911Z,94736.91
2023-04-05T11:23:18.874Z,94736.06
2023-04-05T11:25:59.889Z,94731.94
2023-04-05T11:28:37.338Z,94732.50
2023-04-05T11:31:19.112Z,94716.88
2023-04-05T11:33:55.064Z,94735.19
2023-04-05T11:36:50.494Z,94746.63
2023-04-05T11:39:21.352Z,94731.03
2023-04-05T11:42:02.140Z,94731.16
2023-04-05T11:44:39.334Z,94733.19
2023-04-05T11:47:06.907Z,94731.16
2023-04-05T11:49:34.462Z,94720.78
2023-04-05T11:52:11.953Z,94728.59
2023-04-05T11:54:39.928Z,94694.34
2023-04-05T11:57:13.017Z,94731.78
2023-04-05T11:59:39.953Z,94718.56
2023-04-05T12:02:08.364Z,94720.31
2023-04-05T12:04:36.669Z,94718.59
2023-04-05T12:07:11.844Z,94714.56
2023-04-05T12:10:01.590Z,94718.91
2023-04-05T12:12:34.288Z,94716.19
2023-04-05T12:15:03.559Z,94697.88
2023-04-05T12:17:47.180Z,94728.53
2023-04-05T12:20:23.921Z,94714.34
2023-04-05T12:22:53.378Z,94732.25
2023-04-05T12:25:20.956Z,94732.44
2023-04-05T12:27:47.967Z,94731.69
2023-04-05T12:30:16.702Z,94715.06
2023-04-05T12:32:50.452Z,94684.41
2023-04-05T12:35:18.957Z,94715.22
2023-04-05T12:37:46.967Z,94715.69
2023-04-05T12:40:14.445Z,94693.00
2023-04-05T12:42:41.820Z,94716.16
2023-04-05T12:45:13.334Z,94712.38
2023-04-05T12:47:51.000Z,94720.97
2023-04-05T12:50:19.769Z,94716.75
2023-04-05T12:53:23.771Z,94725.56
2023-04-05T12:56:01.722Z,94727.31
2023-04-05T12:58:36.819Z,94692.78
2023-04-05T13:01:04.610Z,94706.91
2023-04-05T13:03:31.864Z,94738.56
2023-04-05T13:05:58.952Z,94725.47
2023-04-05T13:08:27.727Z,94715.78
2023-04-05T13:10:57.191Z,94710.06
2023-04-05T13:13:25.579Z,94719.88
2023-04-05T13:15:52.682Z,94726.78
2023-04-05T13:18:20.681Z,94716.22
2023-04-05T13:20:47.808Z,94740.84
2023-04-05T13:23:15.090Z,94728.63
2023-04-05T13:25:45.600Z,94737.31
2023-04-05T13:28:13.752Z,94732.63
2023-04-05T13:30:40.915Z,94732.41
2023-04-05T13:33:07.828Z,94729.28
2023-04-05T13:35:34.999Z,94737.44
2023-04-05T13:38:04.321Z,94702.84
2023-04-05T13:40:32.297Z,94728.25
2023-04-05T13:42:59.415Z,94725.72
2023-04-05T13:45:26.320Z,94710.28
2023-04-05T13:47:53.519Z,94732.13
2023-04-05T13:50:20.653Z,94737.34
2023-04-05T13:52:47.592Z,94735.72
2023-04-05T13:55:15.589Z,94724.56
2023-04-05T13:57:42.651Z,94732.47
2023-04-05T14:00:10.334Z,94728.88
2023-04-05T14:02:41.192Z,94724.53
2023-04-05T14:05:09.046Z,94729.69
2023-04-05T14:07:36.925Z,94746.56
2023-04-05T14:10:06.352Z,94745.75
2023-04-05T14:12:33.982Z,94748.25
2023-04-05T14:15:01.015Z,94761.88
2023-04-05T14:17:28.296Z,94745.59
2023-04-05T14:19:55.470Z,94765.63
2023-04-05T14:22:22.514Z,94695.19
2023-04-05T14:24:49.807Z,94760.50
2023-04-05T14:27:16.818Z,94752.97
2023-04-05T14:29:45.890Z,94763.78
2023-04-05T14:32:13.214Z,94761.94
2023-04-05T14:34:40.284Z,94777.31
2023-04-05T14:37:08.055Z,94767.34
2023-04-05T14:39:35.041Z,94758.91
2023-04-05T14:42:05.228Z,94744.91
2023-04-05T14:44:32.670Z,94747.81
2023-04-05T14:46:59.712Z,94755.53
2023-04-05T14:49:26.833Z,94738.69
2023-04-05T14:51:53.722Z,94763.56
2023-04-05T14:54:20.943Z,94777.81
2023-04-05T14:56:48.203Z,94773.41
2023-04-05T14:59:15.534Z,94776.19
2023-04-05T15:01:44.470Z,94784.41
2023-04-05T15:04:12.021Z,94755.47
2023-04-05T15:06:39.062Z,94779.78
2023-04-05T15:09:06.076Z,94754.47
2023-04-05T15:11:35.784Z,94758.28
2023-04-05T15:14:02.849Z,94784.63
2023-04-05T15:16:30.645Z,94794.16
2023-04-05T15:18:59.320Z,94785.66
2023-04-05T15:21:26.725Z,94789.28
2023-04-05T15:23:53.733Z,94775.97
2023-04-05T15:26:21.637Z,94793.22
2023-04-05T15:28:48.753Z,94797.06
2023-04-05T15:31:16.080Z,94776.19
2023-04-05T15:33:43.279Z,94785.72
2023-04-05T15:36:10.580Z,94797.47
2023-04-05T15:38:37.810Z,94800.94
2023-04-05T15:41:05.093Z,94764.22
2023-04-05T15:43:33.755Z,94762.19
2023-04-05T15:46:00.990Z,94761.38
2023-04-05T15:48:28.087Z,94768.50
2023-04-05T15:50:55.168Z,94795.22
2023-04-05T15:53:22.225Z,94778.63
2023-04-05T15:55:49.492Z,94789.59
2023-04-05T15:58:16.445Z,94796.25
2023-04-05T16:00:43.908Z,94809.88
2023-04-05T16:03:11.844Z,94802.34
2023-04-05T16:05:39.048Z,94699.56
2023-04-05T16:08:06.599Z,94792.81
2023-04-05T16:10:33.513Z,94804.34
2023-04-05T16:13:00.720Z,94806.78
2023-04-05T16:15:28.719Z,94805.59
2023-04-05T16:17:56.284Z,94794.81
2023-04-05T16:20:23.766Z,94807.19
2023-04-05T16:22:52.227Z,94806.34
2023-04-05T16:25:19.601Z,94807.13
2023-04-05T16:27:46.464Z,94787.84
2023-04-05T16:30:13.737Z,94816.34
2023-04-05T16:32:41.041Z,94813.69
2023-04-05T16:35:08.492Z,94817.88
2023-04-05T16:37:35.532Z,94807.56
2023-04-05T16:40:04.495Z,94809.38
2023-04-05T16:42:31.640Z,94788.72
2023-04-05T16:44:59.023Z,94803.09
2023-04-05T16:47:26.233Z,94801.28
2023-04-05T16:49:53.629Z,94811.63
2023-04-05T16:52:22.258Z,94790.31
2023-04-05T16:54:49.502Z,94804.66
2023-04-05T16:57:16.545Z,94808.13
2023-04-05T16:59:43.775Z,94742.41
2023-04-05T17:02:10.990Z,94810.56
2023-04-05T17:04:38.211Z,94789.06
2023-04-05T17:07:05.868Z,94788.75
2023-04-05T17:09:33.513Z,94778.34
2023-04-05T17:12:02.028Z,94797.66
2023-04-05T17:14:29.337Z,94818.94
2023-04-05T17:16:56.908Z,94795.31
2023-04-05T17:19:23.799Z,94824.50
2023-04-05T17:21:51.524Z,94814.97
2023-04-05T17:24:21.585Z,94826.75
2023-04-05T17:26:48.726Z,94828.63
2023-04-05T17:29:17.654Z,94812.19
2023-04-05T17:31:45.172Z,94824.75
2023-04-05T17:34:14.999Z,94809.16
2023-04-05T17:36:43.744Z,94834.91
2023-04-05T17:39:13.714Z,94773.06
2023-04-05T17:41:40.998Z,94780.78
2023-04-05T17:44:08.551Z,94791.06
2023-04-05T17:46:42.672Z,94774.66
2023-04-05T17:49:11.939Z,94811.03
2023-04-05T17:51:39.171Z,94780.47
2023-04-05T17:54:09.124Z,94834.72
2023-04-05T17:56:36.469Z,94840.00
2023-04-05T17:59:04.297Z,94835.94
2023-04-05T18:01:32.104Z,94843.00
2023-04-05T18:03:59.781Z,94770.16
2023-04-05T18:06:27.616Z,94845.44
2023-04-05T18:08:54.826Z,94851.69
2023-04-05T18:11:21.982Z,94845.97
2023-04-05T18:13:49.011Z,94837.00
2023-04-05T18:16:16.160Z,94843.66
2023-04-05T18:18:43.062Z,94833.66
2023-04-05T18:21:10.256Z,94847.09
2023-04-05T18:23:37.083Z,94848.28
2023-04-05T18:26:08.044Z,94836.28
2023-04-05T18:28:36.775Z,94847.44
2023-04-05T18:31:03.790Z,94858.56
2023-04-05T18:33:31.373Z,94844.56
2023-04-05T18:35:58.488Z,94857.06
2023-04-05T18:38:26.591Z,94865.19
2023-04-05T18:41:02.013Z,94856.50
2023-04-05T18:43:29.871Z,94861.38
2023-04-05T18:45:57.226Z,94857.69
2023-04-05T18:48:25.231Z,94869.13
2023-04-05T18:50:54.089Z,94869.00
2023-04-05T18:53:22.390Z,94873.44
2023-04-05T18:55:53.553Z,94831.03
2023-04-05T18:58:20.965Z,94853.22
2023-04-05T19:00:47.993Z,94868.00
2023-04-05T19:03:16.359Z,94866.56
2023-04-05T19:05:49.594Z,94867.91
2023-04-05T19:08:18.880Z,94861.38
2023-04-05T19:10:45.938Z,94866.91
2023-04-05T19:13:13.444Z,94864.31
2023-04-05T19:15:40.724Z,94879.13
2023-04-05T19:18:08.059Z,94859.59
2023-04-05T19:20:35.143Z,94874.63
2023-04-05T19:23:02.266Z,94867.50
2023-04-05T19:25:29.302Z,94860.81
2023-04-05T19:27:56.569Z,94872.00
2023-04-05T19:30:23.915Z,94869.91
2023-04-05T19:32:53.850Z,94862.63
2023-04-05T19:35:21.016Z,94855.31
2023-04-05T19:40:32.710Z,94855.69
2023-04-05T19:43:01.970Z,94786.00
2023-04-05T19:45:30.592Z,94853.03
2023-04-05T19:47:59.958Z,94835.09
2023-04-05T19:50:40.608Z,94842.22
2023-04-05T19:53:08.211Z,94826.94
2023-04-05T19:55:37.963Z,94832.91
2023-04-05T19:58:10.485Z,94843.03
2023-04-05T20:00:47.119Z,94833.66
2023-04-05T20:03:27.606Z,94841.47
2023-04-05T20:06:05.211Z,94828.97
2023-04-05T20:08:34.638Z,94830.34
2023-04-05T20:11:05.388Z,94833.97
2023-04-05T20:13:34.293Z,94812.41
2023-04-05T20:16:01.289Z,94825.34
2023-04-05T20:18:29.135Z,94824.91
2023-04-05T20:20:56.925Z,94826.09
2023-04-05T20:23:27.350Z,94815.91
2023-04-05T20:25:54.723Z,94778.50
2023-04-05T20:28:34.629Z,94837.28
2023-04-05T20:31:02.757Z,94841.53
2023-04-05T20:33:48.125Z,94835.34
2023-04-05T20:36:36.023Z,94840.47
2023-04-05T20:39:06.852Z,94848.16
2023-04-05T20:41:34.163Z,94826.66
2023-04-05T20:44:01.254Z,94830.47
2023-04-05T20:46:28.696Z,94844.47
2023-04-05T20:48:58.171Z,94843.06
2023-04-05T20:51:25.927Z,94853.28
2023-04-05T20:53:53.605Z,94844.78
2023-04-05T20:56:20.973Z,94845.34
2023-04-05T20:58:48.056Z,94834.84
2023-04-05T21:01:15.773Z,94841.28
2023-04-05T21:03:43.143Z,94822.38
2023-04-05T21:06:11.899Z,94853.47
2023-04-05T21:08:41.478Z,94854.09
2023-04-05T21:11:10.753Z,94850.66
2023-04-05T21:13:39.767Z,94844.78
2023-04-05T21:16:07.373Z,94841.34
2023-04-05T21:18:34.612Z,94854.56
2023-04-05T21:21:01.527Z,94848.22
2023-04-05T21:23:29.308Z,94825.69
2023-04-05T21:25:57.617Z,94857.66
2023-04-05T21:28:26.164Z,94863.25
2023-04-05T21:30:53.612Z,94839.91
2023-04-05T21:33:20.915Z,94825.53
2023-04-05T21:35:48.350Z,94841.59
2023-04-05T21:38:15.930Z,94823.47
2023-04-05T21:40:44.716Z,94847.34
2023-04-05T21:43:13.276Z,94854.75
2023-04-05T21:45:40.438Z,94859.00
2023-04-05T21:48:07.917Z,94839.22
2023-04-05T21:50:35.127Z,94843.97
2023-04-05T21:53:04.071Z,94848.59
2023-04-05T21:55:31.161Z,94830.66
2023-04-05T21:57:58.318Z,94844.69
2023-04-05T22:00:25.331Z,94851.53
2023-04-05T22:02:52.409Z,94842.66
2023-04-05T22:05:33.981Z,94803.59
2023-04-05T22:08:04.062Z,94838.03
2023-04-05T22:10:31.182Z,94821.47
2023-04-05T22:12:58.544Z,94822.91
2023-04-05T22:15:25.852Z,94828.03
2023-04-05T22:17:53.001Z,94806.88
2023-04-05T22:20:20.178Z,94824.16
2023-04-05T22:22:47.833Z,94824.16
2023-04-05T22:25:14.986Z,94827.59
2023-04-05T22:27:42.009Z,94819.09
2023-04-05T22:30:09.524Z,94815.22
2023-04-05T22:32:36.877Z,94812.53
2023-04-05T22:35:04.485Z,94795.72
2023-04-05T22:37:36.639Z,94809.09
2023-04-05T22:40:04.825Z,94802.97
2023-04-05T22:42:32.198Z,94811.59
2023-04-05T22:44:59.534Z,94808.97
2023-04-05T22:47:27.442Z,94806.72
2023-04-05T22:49:54.863Z,94807.53
2023-04-05T22:52:22.343Z,94800.84
2023-04-05T22:54:49.232Z,94802.84
2023-04-05T22:57:16.525Z,94779.09
2023-04-05T22:59:43.612Z,94793.09
2023-04-05T23:02:12.610Z,94794.28
2023-04-05T23:04:39.887Z,94769.72
2023-04-05T23:07:06.930Z,94791.47
2023-04-05T23:09:34.440Z,94787.22
2023-04-05T23:12:01.653Z,94788.44
2023-04-05T23:14:31.432Z,94761.22
2023-04-05T23:16:58.448Z,94776.22
2023-04-05T23:19:25.644Z,94777.44
2023-04-05T23:21:55.807Z,94782.25
2023-04-05T23:24:22.905Z,94779.22
2023-04-05T23:26:50.110Z,94790.53
2023-04-05T23:29:18.711Z,94762.66
2023-04-05T23:31:46.097Z,94762.97
2023-04-05T23:34:13.176Z,94758.28
2023-04-05T23:36:40.524Z,94767.66
2023-04-05T23:39:07.943Z,94764.63
2023-04-05T23:41:35.058Z,94750.66
2023-04-05T23:44:02.092Z,94763.00
2023-04-05T23:46:29.118Z,94761.78
2023-04-05T23:48:56.349Z,94753.66
2023-04-05T23:51:23.671Z,94750.66
2023-04-05T23:53:51.612Z,94753.09
2023-04-05T23:56:18.719Z,94741.28
2023-04-05T23:58:46.144Z,94748.41
